This is the latest recevied weather packets stored in our database for station/object YB2YEN-13. If no packets are shown the sender has not sent any weather packets the latest 10 day(s).
| Time | Temp. | Humidity | Pressure | Rain* | Wind** | Luminosity | Snow |
|---|---|---|---|---|---|---|---|
| 1777260393 | 32.78° C | 79% | 979 hPa | - | - | 0 W/m² | - |
| 1777260071 | 33.33° C | 75% | 979 hPa | - | - | 0 W/m² | - |
| 1777259749 | 34.44° C | 73% | 979 hPa | - | - | 0 W/m² | - |
| 1777259427 | 33.33° C | 79% | 979 hPa | - | - | 0 W/m² | - |
| 1777259105 | 32.22° C | 82% | 979 hPa | - | - | 0 W/m² | - |
| 1777258783 | 32.78° C | 81% | 979 hPa | - | - | 0 W/m² | - |
| 1777258461 | 32.78° C | 79% | 979 hPa | - | - | 0 W/m² | - |
| 1777258139 | 32.78° C | 78% | 979 hPa | - | - | 0 W/m² | - |
| 1777257817 | 32.22° C | 79% | 979 hPa | - | - | 0 W/m² | - |
| 1777257495 | 31.67° C | 92% | 979 hPa | - | - | 0 W/m² | - |
| 1777257173 | 32.22° C | 84% | 979 hPa | - | - | 0 W/m² | - |
| 1777256851 | 32.22° C | 83% | 979 hPa | - | - | 0 W/m² | - |
| 1777256529 | 32.78° C | 87% | 979 hPa | - | - | 0 W/m² | - |
| 1777256207 | 31.67° C | 93% | 979 hPa | - | - | 0 W/m² | - |
| 1777255886 | 30.56° C | 99% | 979 hPa | - | - | 0 W/m² | - |
| 1777255563 | 30.56° C | 99% | 979 hPa | - | - | 0 W/m² | - |
| 1777255241 | 30° C | 99% | 979 hPa | - | - | 0 W/m² | - |
| 1777254919 | 30° C | 99% | 979 hPa | - | - | 0 W/m² | - |
| 1777254597 | 30° C | 99% | 979 hPa | - | - | 0 W/m² | - |
| 1777254275 | 29.44° C | 99% | 979 hPa | - | - | 0 W/m² | - |
| 1777253953 | 29.44° C | 99% | 979 hPa | - | - | 0 W/m² | - |
| 1777253631 | 30.56° C | 98% | 979 hPa | - | - | 0 W/m² | - |
| 1777253309 | 30.56° C | 97% | 979 hPa | - | - | 0 W/m² | - |
| 1777252987 | 30.56° C | 99% | 979 hPa | - | - | 0 W/m² | - |
| 1777252665 | 29.44° C | 99% | 979 hPa | - | - | 0 W/m² | - |
* Rain since midnight (hover to see other rain measurements)
** Current wind speed in m/s (hover to see current wind gust speed)